Time;durP1;ratioP1;P1;durP2;ratioP2;P2;SDS_P1;SDS_P2;PMS_P1;PMS_P2;Temp;Humidity;BMP_temperature;BMP_pressure;BME280_temperature;BME280_humidity;BME280_pressure;Samples;Min_cycle;Max_cycle;Signal;HPM_P1;HPM_P2
2021/12/12 00:01:36;;;;;;;;;;;;;;;2.11;72.73;100422.28;4992340;28;19937;-88
2021/12/12 00:04:11;;;;;;;;;;;;;;;2.14;72.85;100409.22;4991373;28;19956;-86
2021/12/12 00:06:38;;;;;;;;;;;;;;;2.15;72.84;100413.56;5006929;28;19968;-87
2021/12/12 00:09:10;;;;;;;;;;;;;;;2.14;72.76;100410.09;4991037;28;19925;-86
2021/12/12 00:11:36;;;;;;;;;;;;;;;2.17;72.75;100409.19;4989068;28;20012;-86
2021/12/12 00:14:13;;;;;;;;;;;;;;;2.20;72.71;100414.44;4991216;28;20036;-87
2021/12/12 00:16:39;;;;;;;;;;;;;;;2.22;72.64;100406.59;4989402;28;20301;-87
2021/12/12 00:19:05;;;;;;;;;;;;;;;2.23;72.95;100417.06;4990643;28;19933;-86
2021/12/12 00:21:35;;;;;;;;;;;;;;;2.25;72.89;100417.06;4992143;28;20377;-88
2021/12/12 00:24:01;;;;;;;;;;;;;;;2.28;72.88;100423.19;5004700;28;19926;-86
2021/12/12 00:26:27;;;;;;;;;;;;;;;2.27;72.96;100431.03;4990287;28;20016;-88
2021/12/12 00:28:53;;;;;;;;;;;;;;;2.30;73.34;100431.91;4991002;28;20381;-88
2021/12/12 00:31:23;;;;;;;;;;;;;;;2.33;73.27;100431.00;5007352;28;19926;-89
2021/12/12 00:33:50;;;;;;;;;;;;;;;2.32;73.48;100438.00;4991525;28;19925;-88
2021/12/12 00:36:17;;;;;;;;;;;;;;;2.33;73.29;100426.69;5006993;28;19956;-89
2021/12/12 00:38:43;;;;;;;;;;;;;;;2.35;73.19;100411.00;4991301;28;19929;-87
2021/12/12 00:41:10;;;;;;;;;;;;;;;2.36;73.11;100411.00;4990307;28;19918;-89
2021/12/12 00:43:41;;;;;;;;;;;;;;;2.39;73.22;100415.31;4990998;28;19925;-87
2021/12/12 00:46:08;;;;;;;;;;;;;;;2.40;73.14;100427.56;5007079;28;20386;-87
2021/12/12 00:48:34;;;;;;;;;;;;;;;2.41;73.34;100412.72;4990024;28;19929;-87
2021/12/12 00:51:01;;;;;;;;;;;;;;;2.40;73.37;100416.22;4992505;28;19976;-89
2021/12/12 00:53:29;;;;;;;;;;;;;;;2.53;74.09;100420.56;4992696;28;19948;-89
2021/12/12 00:55:57;;;;;;;;;;;;;;;2.77;75.84;100421.44;4990197;28;19933;-90
2021/12/12 00:58:25;;;;;;;;;;;;;;;2.94;77.84;100424.91;4991345;28;19925;-89
2021/12/12 01:00:52;;;;;;;;;;;;;;;3.04;80.00;100431.88;4991542;28;20250;-88
2021/12/12 01:03:21;;;;;;;;;;;;;;;3.07;81.65;100434.47;4991534;28;19917;-88
2021/12/12 01:05:47;;;;;;;;;;;;;;;3.10;83.13;100438.84;5007486;28;19922;-89
2021/12/12 01:08:17;;;;;;;;;;;;;;;3.11;84.51;100437.09;4991270;28;19918;-88
2021/12/12 01:10:51;;;;;;;;;;;;;;;3.11;85.60;100437.09;4990824;28;19965;-87
2021/12/12 01:13:19;;;;;;;;;;;;;;;3.09;86.74;100440.63;4991434;28;20029;-88
2021/12/12 01:16:10;;;;;;;;;;;;;;;;;;;;;
2021/12/12 01:18:39;;;;;;;;;;;;;;;3.06;88.52;100435.38;4992230;28;19928;-89
2021/12/12 01:21:16;;;;;;;;;;;;;;;3.04;89.35;100434.50;5006703;28;19918;-90
2021/12/12 01:23:47;;;;;;;;;;;;;;;3.04;90.07;100447.56;4992133;28;20009;-88
2021/12/12 01:26:13;;;;;;;;;;;;;;;3.05;90.72;100438.88;4993868;28;20440;-90
2021/12/12 01:28:42;;;;;;;;;;;;;;;3.03;91.33;100438.00;4994625;28;19918;-87
2021/12/12 01:31:09;;;;;;;;;;;;;;;3.03;92.22;100438.00;4994739;28;19924;-88
2021/12/12 01:33:36;;;;;;;;;;;;;;;3.07;93.05;100442.34;4995364;28;19918;-86
2021/12/12 01:36:22;;;;;;;;;;;;;;;3.06;94.06;100443.22;4996243;28;19956;-86
2021/12/12 01:41:17;;;;;;;;;;;;;;;3.05;96.62;100440.63;4994189;28;19925;-84
2021/12/12 01:43:46;;;;;;;;;;;;;;;3.11;98.18;100442.34;4994604;28;19914;-84
2021/12/12 01:46:19;;;;;;;;;;;;;;;3.26;100.00;100447.56;4994717;28;20332;-88
2021/12/12 01:48:53;;;;;;;;;;;;;;;3.42;100.00;100448.38;4993821;28;19953;-87
2021/12/12 01:51:19;;;;;;;;;;;;;;;3.52;100.00;100450.09;4995742;28;20266;-87
2021/12/12 01:53:46;;;;;;;;;;;;;;;3.66;100.00;100451.81;5010925;28;20365;-87
2021/12/12 01:56:18;;;;;;;;;;;;;;;3.77;100.00;100450.00;4993306;28;20412;-86
2021/12/12 01:58:45;;;;;;;;;;;;;;;3.81;100.00;100457.84;4994889;28;19972;-84
2021/12/12 04:19:56;;;;;;;;;;;;;;;2.85;97.28;100485.13;4949388;28;19937;-90
2021/12/12 04:22:23;;;;;;;;;;;;;;;2.70;96.79;100473.78;4989260;28;19976;-87
2021/12/12 04:24:51;;;;;;;;;;;;;;;2.63;96.63;100477.28;4982314;28;20012;-86
2021/12/12 04:27:17;;;;;;;;;;;;;;;2.62;96.42;100475.53;4981891;28;19918;-88
2021/12/12 04:29:45;;;;;;;;;;;;;;;2.54;95.97;100472.03;4983145;28;19968;-88
2021/12/12 04:32:14;;;;;;;;;;;;;;;2.55;95.74;100468.53;4980646;28;19929;-89
2021/12/12 04:34:41;;;;;;;;;;;;;;;2.50;95.54;100470.28;4983988;28;20400;-88
2021/12/12 04:37:07;;;;;;;;;;;;;;;2.48;94.99;100469.41;4982352;28;20465;-88
2021/12/12 04:39:37;;;;;;;;;;;;;;;2.44;94.75;100471.16;4981426;28;19918;-88
2021/12/12 04:42:10;;;;;;;;;;;;;;;2.35;94.39;100477.25;4989736;28;19994;-88
2021/12/12 04:44:37;;;;;;;;;;;;;;;2.32;94.05;100471.13;4983101;28;19968;-88
2021/12/12 04:49:56;;;;;;;;;;;;;;;2.24;93.30;100470.25;4982936;28;20277;-89
2021/12/12 04:52:32;;;;;;;;;;;;;;;2.21;93.02;100473.72;4982247;28;19922;-88
2021/12/12 04:55:02;;;;;;;;;;;;;;;2.21;92.80;100480.69;4983077;28;19914;-88
2021/12/12 04:57:38;;;;;;;;;;;;;;;2.14;92.58;100478.06;5005946;28;20004;-88
2021/12/12 05:00:15;;;;;;;;;;;;;;;2.11;91.95;100477.19;5004687;28;19926;-88
2021/12/12 05:02:49;;;;;;;;;;;;;;;2.08;91.85;100475.44;4982438;28;19925;-88
2021/12/12 05:05:21;;;;;;;;;;;;;;;2.06;91.37;100474.56;4982549;28;19922;-89
2021/12/12 05:07:53;;;;;;;;;;;;;;;2.04;91.17;100485.88;4982609;28;19941;-88
2021/12/12 05:10:24;;;;;;;;;;;;;;;1.96;90.99;100481.50;5006534;28;19918;-89
2021/12/12 05:13:03;;;;;;;;;;;;;;;1.92;90.70;100471.03;4983380;28;19918;-89
2021/12/12 05:15:29;;;;;;;;;;;;;;;1.93;90.49;100476.28;4981536;28;20332;-88
2021/12/12 05:17:56;;;;;;;;;;;;;;;1.92;90.18;100466.66;4983125;28;19953;-88
2021/12/12 05:20:26;;;;;;;;;;;;;;;1.85;89.85;100475.38;4982409;28;19922;-88
2021/12/12 05:22:53;;;;;;;;;;;;;;;1.85;89.70;100485.81;4982209;28;19925;-88
2021/12/12 05:25:21;;;;;;;;;;;;;;;1.93;90.16;100489.34;4982421;28;20388;-87
2021/12/12 05:27:48;;;;;;;;;;;;;;;2.23;94.76;100492.88;4981247;28;20436;-88
2021/12/12 05:30:15;;;;;;;;;;;;;;;2.31;97.07;100493.81;4981127;28;19918;-88
2021/12/12 05:32:41;;;;;;;;;;;;;;;2.31;98.31;100491.19;5006234;28;19921;-88
2021/12/12 05:35:08;;;;;;;;;;;;;;;2.39;99.84;100506.00;4981579;28;19918;-89
2021/12/12 05:37:34;;;;;;;;;;;;;;;2.30;100.00;100499.91;5005287;28;20339;-89
2021/12/12 05:40:02;;;;;;;;;;;;;;;2.27;100.00;100499.88;4982375;28;20344;-88
2021/12/12 05:42:28;;;;;;;;;;;;;;;2.23;100.00;100503.34;4982359;28;19924;-88
2021/12/12 05:44:53;;;;;;;;;;;;;;;2.18;100.00;100505.09;4982010;28;19914;-90
2021/12/12 05:47:19;;;;;;;;;;;;;;;2.13;99.89;100506.81;4981098;28;19921;-88
2021/12/12 05:49:45;;;;;;;;;;;;;;;2.08;99.55;100504.19;4982897;28;20013;-89
2021/12/12 05:52:12;;;;;;;;;;;;;;;2.07;99.40;100512.03;4981417;28;19965;-88
2021/12/12 05:54:38;;;;;;;;;;;;;;;2.02;99.08;100514.63;4982020;28;19977;-88
2021/12/12 05:57:03;;;;;;;;;;;;;;;1.98;98.82;100513.75;4982784;28;20364;-87
2021/12/12 05:59:30;;;;;;;;;;;;;;;1.94;98.48;100517.19;4981211;28;20275;-89
2021/12/12 06:01:56;;;;;;;;;;;;;;;1.92;98.28;100512.84;5003745;28;19960;-87
2021/12/12 06:04:21;;;;;;;;;;;;;;;1.88;97.82;100517.19;4982783;28;19918;-88
2021/12/12 06:06:48;;;;;;;;;;;;;;;1.89;97.52;100525.91;4980552;28;19922;-89
2021/12/12 06:09:14;;;;;;;;;;;;;;;1.84;97.09;100525.88;4982518;28;19957;-87
2021/12/12 06:11:42;;;;;;;;;;;;;;;1.85;96.74;100526.75;4984883;28;19976;-87
2021/12/12 06:14:08;;;;;;;;;;;;;;;1.83;96.22;100524.13;4984266;28;19922;-88
2021/12/12 13:58:26;;;;;;;;;;;;;;;4.30;100.00;100577.38;5272377;23;19938;-87
2021/12/12 14:00:56;;;;;;;;;;;;;;;4.36;100.00;100579.13;4979828;28;19981;-86
2021/12/12 14:03:32;;;;;;;;;;;;;;;4.43;100.00;100572.94;5009182;28;19928;-86
2021/12/12 14:06:01;;;;;;;;;;;;;;;4.47;100.00;100582.56;4985689;28;19922;-86
2021/12/12 14:08:28;;;;;;;;;;;;;;;4.48;100.00;100581.69;4983676;28;19949;-88
2021/12/12 14:10:55;;;;;;;;;;;;;;;4.54;100.00;100576.38;5008896;28;20322;-86
2021/12/12 14:13:21;;;;;;;;;;;;;;;4.56;100.00;100576.38;5007356;28;19918;-85
2021/12/12 14:16:04;;;;;;;;;;;;;;;4.61;100.00;100576.34;4984940;28;19918;-87
2021/12/12 14:18:37;;;;;;;;;;;;;;;4.62;100.00;100578.09;4986166;28;19918;-86
2021/12/12 14:21:03;;;;;;;;;;;;;;;4.65;100.00;100578.09;5008517;28;19925;-86
2021/12/12 14:23:30;;;;;;;;;;;;;;;4.68;100.00;100578.06;4985888;28;19918;-86
2021/12/12 14:26:03;;;;;;;;;;;;;;;4.71;100.00;100585.94;4984141;28;20240;-88
2021/12/12 14:28:29;;;;;;;;;;;;;;;3.79;100.00;100585.41;4983887;28;19922;-86
2021/12/12 14:30:55;;;;;;;;;;;;;;;3.36;100.00;100589.88;4983847;28;19977;-86
2021/12/12 14:33:24;;;;;;;;;;;;;;;3.15;100.00;100588.13;5008862;28;19918;-86
2021/12/12 14:35:58;;;;;;;;;;;;;;;3.01;100.00;100591.59;5009319;28;19917;-86
2021/12/12 14:38:24;;;;;;;;;;;;;;;2.89;100.00;100589.84;4983682;28;20376;-87
2021/12/12 14:40:51;;;;;;;;;;;;;;;2.79;100.00;100589.81;4984032;28;19956;-87
2021/12/12 14:43:22;;;;;;;;;;;;;;;2.71;100.00;100593.31;4983900;28;20021;-85
2021/12/12 14:45:51;;;;;;;;;;;;;;;2.71;100.00;100582.84;4984859;28;20006;-87
2021/12/12 14:48:22;;;;;;;;;;;;;;;2.64;100.00;100582.81;4983907;28;19929;-87
2021/12/12 14:50:51;;;;;;;;;;;;;;;2.58;100.00;100583.66;5007999;28;20448;-87
2021/12/12 14:53:18;;;;;;;;;;;;;;;2.53;99.85;100590.63;4984945;28;19972;-86
2021/12/12 14:55:55;;;;;;;;;;;;;;;2.50;99.28;100586.25;4984266;28;19925;-86
2021/12/12 14:58:28;;;;;;;;;;;;;;;2.49;98.58;100594.09;4983728;28;19924;-86
2021/12/12 15:00:57;;;;;;;;;;;;;;;2.45;98.06;100587.13;4984631;28;20365;-85
2021/12/12 15:03:25;;;;;;;;;;;;;;;2.40;97.62;100586.25;4983195;28;20373;-85
2021/12/12 15:05:55;;;;;;;;;;;;;;;2.40;97.22;100591.47;4983430;28;19922;-86
2021/12/12 15:08:23;;;;;;;;;;;;;;;2.34;96.51;100590.56;4985054;28;19963;-87
2021/12/12 15:10:59;;;;;;;;;;;;;;;2.32;96.09;100597.53;4983199;28;19922;-87
2021/12/12 15:13:25;;;;;;;;;;;;;;;2.28;95.58;100598.41;4983811;28;19925;-87
2021/12/12 15:15:56;;;;;;;;;;;;;;;2.25;95.11;100593.16;4983553;28;19922;-87
2021/12/12 15:18:25;;;;;;;;;;;;;;;2.23;94.55;100602.72;4984744;28;20056;-89
2021/12/12 15:20:53;;;;;;;;;;;;;;;2.19;93.97;100608.84;4983409;28;20020;-88
2021/12/12 15:23:20;;;;;;;;;;;;;;;2.16;93.34;100611.44;4983127;28;19922;-86
2021/12/12 15:25:52;;;;;;;;;;;;;;;2.11;92.84;100607.94;5007863;28;19922;-87
2021/12/12 15:28:20;;;;;;;;;;;;;;;2.07;92.33;100606.16;5005967;28;20004;-89
2021/12/12 15:30:48;;;;;;;;;;;;;;;2.04;92.06;100608.75;4985060;28;19918;-87
2021/12/12 15:33:16;;;;;;;;;;;;;;;1.98;91.70;100607.84;4983274;28;20361;-88
2021/12/12 15:35:42;;;;;;;;;;;;;;;1.99;91.39;100606.09;4983352;28;19930;-88
2021/12/12 15:38:13;;;;;;;;;;;;;;;1.94;91.07;100620.91;4983213;28;19922;-86
2021/12/12 15:40:42;;;;;;;;;;;;;;;1.95;90.71;100607.84;5007204;28;19917;-86
2021/12/12 15:43:10;;;;;;;;;;;;;;;1.91;90.38;100610.41;4981698;28;20012;-85
2021/12/12 15:45:41;;;;;;;;;;;;;;;1.94;90.09;100619.16;4983499;28;20428;-86
2021/12/12 15:48:15;;;;;;;;;;;;;;;1.86;89.92;100618.22;4983422;28;19969;-87
2021/12/12 15:50:41;;;;;;;;;;;;;;;1.83;89.76;100618.22;5007055;28;19921;-86
2021/12/12 15:53:17;;;;;;;;;;;;;;;1.83;89.68;100625.19;4984487;28;19973;-86
2021/12/12 15:55:47;;;;;;;;;;;;;;;1.83;89.54;100620.81;5006737;28;20432;-86
2021/12/12 15:58:18;;;;;;;;;;;;;;;1.82;89.25;100632.16;4988857;28;20293;-88
2021/12/12 16:00:46;;;;;;;;;;;;;;;1.76;89.19;100629.50;4982229;28;19929;-87
2021/12/12 16:03:17;;;;;;;;;;;;;;;1.78;89.17;100628.63;4984226;28;19934;-88
2021/12/12 16:05:48;;;;;;;;;;;;;;;1.74;89.02;100628.59;4983713;28;20385;-88
2021/12/12 16:08:15;;;;;;;;;;;;;;;1.72;88.81;100625.97;4982606;28;19939;-89
2021/12/12 16:10:45;;;;;;;;;;;;;;;1.74;88.87;100633.81;4983382;28;20436;-87
2021/12/12 16:13:20;;;;;;;;;;;;;;;1.71;88.76;100628.56;4980780;28;19918;-88
2021/12/12 16:15:46;;;;;;;;;;;;;;;1.68;88.65;100629.44;4982280;28;19922;-86
2021/12/12 16:18:14;;;;;;;;;;;;;;;1.66;88.55;100630.28;4981830;28;19929;-88
2021/12/12 16:20:45;;;;;;;;;;;;;;;1.63;88.44;100629.41;4983883;28;19926;-87
2021/12/12 16:23:15;;;;;;;;;;;;;;;1.65;88.18;100632.03;4981802;28;19973;-88
2021/12/12 16:25:47;;;;;;;;;;;;;;;1.63;88.23;100634.63;4983224;28;19965;-88
2021/12/12 16:28:17;;;;;;;;;;;;;;;1.61;87.94;100636.38;4980157;28;20000;-89
2021/12/12 16:30:44;;;;;;;;;;;;;;;1.59;87.80;100643.31;4982514;28;19918;-86
2021/12/12 16:33:14;;;;;;;;;;;;;;;1.55;87.82;100636.31;4981795;28;19926;-86
2021/12/12 16:35:41;;;;;;;;;;;;;;;1.58;87.61;100638.06;4982514;28;20266;-87
2021/12/12 16:38:16;;;;;;;;;;;;;;;1.58;87.38;100643.28;4982876;28;20411;-88
2021/12/12 16:40:46;;;;;;;;;;;;;;;1.59;87.29;100639.81;4981604;28;20366;-86
2021/12/12 16:43:16;;;;;;;;;;;;;;;1.59;87.47;100640.69;5004485;28;20274;-87
2021/12/12 16:46:03;;;;;;;;;;;;;;;1.56;87.19;100639.81;4982788;28;19941;-87
2021/12/12 16:48:40;;;;;;;;;;;;;;;1.53;87.20;100640.69;4982009;28;19926;-87
2021/12/12 16:51:09;;;;;;;;;;;;;;;1.53;87.11;100642.38;4981285;28;20400;-87
2021/12/12 16:53:39;;;;;;;;;;;;;;;1.47;87.01;100637.13;4981648;28;19965;-86
2021/12/12 16:56:11;;;;;;;;;;;;;;;1.50;86.83;100639.75;5005668;28;20512;-87
2021/12/12 16:58:43;;;;;;;;;;;;;;;1.48;86.77;100641.50;4988339;28;20392;-89
2021/12/12 17:01:14;;;;;;;;;;;;;;;1.47;86.73;100640.63;4982216;28;19960;-88
2021/12/12 17:03:47;;;;;;;;;;;;;;;1.48;86.61;100649.31;4981651;28;19989;-86
2021/12/12 17:06:34;;;;;;;;;;;;;;;1.48;86.55;100655.41;5005578;28;20281;-87
2021/12/12 17:09:11;;;;;;;;;;;;;;;1.47;86.45;100640.63;4981312;28;19918;-86
2021/12/12 17:11:38;;;;;;;;;;;;;;;1.50;86.26;100645.88;4981590;28;19934;-88
2021/12/12 17:14:23;;;;;;;;;;;;;;;1.46;86.19;100649.31;4988088;28;19918;-87
2021/12/12 17:16:51;;;;;;;;;;;;;;;1.44;86.16;100635.38;4981581;28;20075;-88
2021/12/12 17:19:20;;;;;;;;;;;;;;;1.46;86.05;100649.31;5005506;28;20293;-87
2021/12/12 17:21:47;;;;;;;;;;;;;;;1.44;86.01;100651.03;4983134;28;20181;-88
2021/12/12 17:24:12;;;;;;;;;;;;;;;1.48;85.97;100647.56;4987706;28;20016;-88
2021/12/12 17:26:39;;;;;;;;;;;;;;;1.40;85.59;100646.66;4980345;28;20356;-87
2021/12/12 17:29:07;;;;;;;;;;;;;;;1.42;85.55;100651.03;5006764;28;19922;-88
2021/12/12 17:31:35;;;;;;;;;;;;;;;1.40;85.66;100650.13;5008905;28;20384;-86
2021/12/12 17:34:11;;;;;;;;;;;;;;;1.38;85.25;100653.59;4983935;28;19922;-87
2021/12/12 17:36:38;;;;;;;;;;;;;;;1.37;85.25;100657.06;4989031;28;19976;-88
2021/12/12 17:39:07;;;;;;;;;;;;;;;1.37;85.26;100663.19;4983271;28;20000;-86
2021/12/12 17:41:52;;;;;;;;;;;;;;;1.33;85.24;100660.53;5006791;28;19922;-88
2021/12/12 17:44:44;;;;;;;;;;;;;;;1.36;85.26;100661.41;4982870;28;19965;-87
2021/12/12 17:47:28;;;;;;;;;;;;;;;1.34;85.13;100664.88;4966193;28;20009;-88
2021/12/12 17:50:16;;;;;;;;;;;;;;;1.38;85.12;100666.66;4981684;28;19918;-87
2021/12/12 17:53:01;;;;;;;;;;;;;;;1.33;84.81;100652.69;4980827;28;20697;-88
2021/12/12 17:55:46;;;;;;;;;;;;;;;1.35;84.95;100659.66;4981273;28;19973;-87
2021/12/12 17:58:20;;;;;;;;;;;;;;;1.35;84.65;100666.63;4976790;28;19940;-85
2021/12/12 18:01:05;;;;;;;;;;;;;;;1.33;84.59;100661.38;4981048;28;19962;-86
2021/12/12 18:03:35;;;;;;;;;;;;;;;1.35;84.59;100664.03;4980216;28;20404;-87
2021/12/12 18:06:06;;;;;;;;;;;;;;;1.34;84.32;100664.88;4981558;28;19928;-88
2021/12/12 18:08:43;;;;;;;;;;;;;;;1.34;84.30;100664.88;4985673;28;20373;-86
2021/12/12 18:11:10;;;;;;;;;;;;;;;1.39;84.19;100668.41;5007787;28;19961;-86
2021/12/12 18:13:42;;;;;;;;;;;;;;;1.33;84.09;100673.59;4984371;28;20395;-87
2021/12/12 18:16:07;;;;;;;;;;;;;;;1.34;84.13;100663.16;4983363;28;19918;-86
2021/12/12 18:19:05;;;;;;;;;;;;;;;1.37;83.80;100672.72;4984041;28;19918;-86
2021/12/12 18:21:33;;;;;;;;;;;;;;;1.35;83.54;100669.25;4967800;28;19922;-86
2021/12/12 18:24:03;;;;;;;;;;;;;;;1.37;83.36;100672.72;4982628;28;19926;-88
2021/12/12 18:26:32;;;;;;;;;;;;;;;1.37;83.38;100680.56;4983985;28;20028;-86
2021/12/12 18:28:59;;;;;;;;;;;;;;;1.39;83.26;100681.47;4984145;28;19918;-86
2021/12/12 18:31:24;;;;;;;;;;;;;;;1.36;83.26;100677.09;4983865;28;20068;-86
2021/12/12 18:33:55;;;;;;;;;;;;;;;1.42;83.02;100681.47;4984596;28;20001;-85
2021/12/12 18:36:24;;;;;;;;;;;;;;;1.41;83.10;100679.75;4984525;28;19972;-89
2021/12/12 18:38:51;;;;;;;;;;;;;;;1.43;83.13;100685.84;5008030;28;19918;-87
2021/12/12 18:41:22;;;;;;;;;;;;;;;1.41;82.87;100684.97;4982301;28;19918;-88
2021/12/12 18:43:56;;;;;;;;;;;;;;;1.42;82.61;100690.22;5007911;28;20370;-88
2021/12/12 18:46:25;;;;;;;;;;;;;;;1.42;82.51;100690.22;4984139;28;19918;-85
2021/12/12 18:48:56;;;;;;;;;;;;;;;1.39;82.21;100694.53;4991995;28;19921;-87
2021/12/12 18:51:22;;;;;;;;;;;;;;;1.48;82.13;100691.13;4983061;28;19922;-85
2021/12/12 18:53:51;;;;;;;;;;;;;;;1.46;82.07;100696.31;4982560;28;19918;-86
2021/12/12 18:56:24;;;;;;;;;;;;;;;1.45;81.89;100703.28;4981998;28;19958;-88
2021/12/12 18:58:50;;;;;;;;;;;;;;;1.48;81.78;100705.03;5007833;28;19928;-85
2021/12/12 19:01:18;;;;;;;;;;;;;;;1.44;81.91;100700.66;4983332;28;20008;-87
2021/12/12 19:03:54;;;;;;;;;;;;;;;1.45;81.57;100697.19;4982993;28;19915;-86
2021/12/12 19:06:25;;;;;;;;;;;;;;;1.48;81.48;100698.94;4984563;28;19929;-85
2021/12/12 19:08:51;;;;;;;;;;;;;;;1.47;81.40;100700.69;4982458;28;19918;-88
2021/12/12 19:11:19;;;;;;;;;;;;;;;1.45;81.36;100700.69;4983608;28;19919;-86
2021/12/12 19:13:46;;;;;;;;;;;;;;;1.46;81.10;100712.00;4982063;28;19972;-88
2021/12/12 19:16:13;;;;;;;;;;;;;;;1.49;81.20;100706.81;4982399;28;19973;-89
2021/12/12 19:18:41;;;;;;;;;;;;;;;1.49;81.20;100711.16;4982767;28;20333;-89
2021/12/12 19:21:15;;;;;;;;;;;;;;;1.53;80.86;100710.31;4983125;28;19926;-87
2021/12/12 19:23:47;;;;;;;;;;;;;;;1.50;80.90;100710.28;5007153;28;19965;-90
2021/12/12 19:26:14;;;;;;;;;;;;;;;1.53;80.65;100713.81;4978230;28;19918;-88
2021/12/12 19:28:45;;;;;;;;;;;;;;;1.50;80.75;100713.78;4981984;28;19926;-89
2021/12/12 19:31:12;;;;;;;;;;;;;;;1.54;80.86;100712.94;4982060;28;19961;-88
2021/12/12 19:33:40;;;;;;;;;;;;;;;1.49;80.55;100712.03;4982782;28;19989;-90
2021/12/12 19:36:06;;;;;;;;;;;;;;;1.56;80.57;100716.44;4983274;28;20000;-89
2021/12/12 19:38:33;;;;;;;;;;;;;;;1.49;80.51;100714.63;4983512;28;20329;-89
2021/12/12 19:41:03;;;;;;;;;;;;;;;1.49;80.24;100716.38;4983685;28;19924;-87
2021/12/12 19:43:34;;;;;;;;;;;;;;;1.53;80.25;100719.03;4981963;28;20017;-88
2021/12/12 19:46:04;;;;;;;;;;;;;;;1.57;79.89;100710.34;4983416;28;20395;-89
2021/12/12 19:48:33;;;;;;;;;;;;;;;1.56;79.91;100712.94;5006279;28;20005;-90
2021/12/12 19:51:00;;;;;;;;;;;;;;;1.61;79.88;100712.16;4981647;28;19922;-88
2021/12/12 19:53:25;;;;;;;;;;;;;;;1.66;79.88;100713.91;4983282;28;19940;-89
2021/12/12 19:55:53;;;;;;;;;;;;;;;1.65;79.80;100718.25;4982186;28;20362;-89
2021/12/12 19:58:20;;;;;;;;;;;;;;;1.68;79.99;100709.59;4980912;28;19976;-87
2021/12/12 20:00:47;;;;;;;;;;;;;;;1.59;79.82;100710.38;4983270;28;19925;-89
2021/12/12 20:03:21;;;;;;;;;;;;;;;1.66;80.03;100713.91;4981981;28;20024;-90
2021/12/12 20:05:52;;;;;;;;;;;;;;;1.70;79.94;100715.69;5005684;28;19929;-86
2021/12/12 20:08:27;;;;;;;;;;;;;;;1.68;79.71;100715.69;4981270;28;19922;-90
2021/12/12 20:10:58;;;;;;;;;;;;;;;1.72;79.62;100720.03;4982777;28;20276;-88
2021/12/12 20:13:34;;;;;;;;;;;;;;;1.74;79.58;100720.06;4981604;28;19925;-87
2021/12/12 20:15:59;;;;;;;;;;;;;;;1.72;79.77;100729.63;4981784;28;19961;-88
2021/12/12 20:18:27;;;;;;;;;;;;;;;1.73;79.80;100732.25;4981296;28;19968;-89
2021/12/12 20:20:54;;;;;;;;;;;;;;;1.69;79.85;100725.28;4982610;28;20309;-90
2021/12/12 20:23:25;;;;;;;;;;;;;;;1.70;79.73;100728.75;5005329;28;19918;-86
2021/12/12 20:25:57;;;;;;;;;;;;;;;1.72;79.82;100729.63;5004980;28;19922;-88
2021/12/12 20:28:23;;;;;;;;;;;;;;;1.72;79.75;100730.50;4979070;28;20400;-89
2021/12/12 20:31:14;;;;;;;;;;;;;;;1.73;79.54;100724.41;4981939;28;20008;-90
2021/12/12 20:33:42;;;;;;;;;;;;;;;1.70;79.44;100723.53;5005366;28;20377;-86
2021/12/12 20:36:29;;;;;;;;;;;;;;;1.73;79.46;100720.94;4981763;28;20381;-89
2021/12/12 20:39:07;;;;;;;;;;;;;;;1.75;79.33;100729.66;4982481;28;20009;-87
2021/12/12 20:41:36;;;;;;;;;;;;;;;1.76;79.25;100736.66;4980943;28;20173;-88
2021/12/12 20:44:05;;;;;;;;;;;;;;;1.78;79.20;100745.38;4980808;28;19921;-86
2021/12/12 20:46:36;;;;;;;;;;;;;;;1.78;79.20;100737.53;4981566;28;20396;-89
2021/12/12 20:49:12;;;;;;;;;;;;;;;1.78;79.00;100729.69;4980701;28;19921;-88
2021/12/12 20:51:47;;;;;;;;;;;;;;;1.82;78.88;100739.31;4980917;28;19922;-89
2021/12/12 20:54:41;;;;;;;;;;;;;;;1.84;78.92;100734.97;4980373;28;19928;-86
2021/12/12 20:57:14;;;;;;;;;;;;;;;1.83;78.77;100732.34;4976915;28;20336;-87
2021/12/12 20:59:41;;;;;;;;;;;;;;;1.84;78.90;100726.25;4981220;28;20361;-89
2021/12/12 21:02:09;;;;;;;;;;;;;;;1.86;78.60;100728.00;4981723;28;20412;-88
2021/12/12 21:04:42;;;;;;;;;;;;;;;1.87;78.68;100726.25;4980759;28;20005;-87
2021/12/12 21:07:09;;;;;;;;;;;;;;;1.88;78.57;100726.28;5004867;28;19925;-89
2021/12/12 21:09:39;;;;;;;;;;;;;;;1.92;78.56;100720.22;4980836;28;20480;-88
2021/12/12 21:12:09;;;;;;;;;;;;;;;1.90;78.45;100714.09;5003486;28;20000;-86
2021/12/12 21:14:35;;;;;;;;;;;;;;;1.91;78.32;100726.28;4980340;28;20383;-87
2021/12/12 21:17:04;;;;;;;;;;;;;;;1.97;78.39;100725.47;5005238;28;19918;-86
2021/12/12 21:19:31;;;;;;;;;;;;;;;1.98;78.45;100719.41;4981526;28;19918;-86
2021/12/12 21:21:57;;;;;;;;;;;;;;;1.98;78.24;100719.41;4981700;28;19918;-86
2021/12/12 21:24:25;;;;;;;;;;;;;;;2.00;78.16;100718.53;4980787;28;19947;-88
2021/12/12 21:26:54;;;;;;;;;;;;;;;2.03;78.16;100717.69;5003873;28;19918;-87
2021/12/12 21:29:20;;;;;;;;;;;;;;;2.00;77.87;100715.91;4980776;28;20338;-89
2021/12/12 21:31:48;;;;;;;;;;;;;;;2.05;77.81;100717.69;4980351;28;19918;-88
2021/12/12 21:34:19;;;;;;;;;;;;;;;2.09;77.85;100716.84;5004705;28;19918;-88
2021/12/12 21:36:44;;;;;;;;;;;;;;;2.09;77.69;100714.22;5003830;28;19914;-87
2021/12/12 21:39:30;;;;;;;;;;;;;;;2.11;77.68;100717.75;4980524;28;20361;-87
2021/12/12 21:42:03;;;;;;;;;;;;;;;2.14;77.80;100720.38;4981874;28;20361;-87
2021/12/12 21:44:35;;;;;;;;;;;;;;;2.15;77.62;100714.25;4985358;28;20391;-87
2021/12/12 21:47:16;;;;;;;;;;;;;;;2.14;77.66;100717.75;4992198;28;20344;-90
2021/12/12 21:49:51;;;;;;;;;;;;;;;2.18;77.78;100714.28;4983959;28;19918;-89
2021/12/12 21:52:18;;;;;;;;;;;;;;;2.23;77.87;100717.78;4991911;28;19922;-88
2021/12/12 21:54:45;;;;;;;;;;;;;;;2.24;77.89;100719.56;4984167;28;19965;-89
2021/12/12 21:57:11;;;;;;;;;;;;;;;2.25;77.82;100721.31;4984239;28;20373;-88
2021/12/12 21:59:36;;;;;;;;;;;;;;;2.25;77.72;100717.81;4984180;28;19929;-89
2021/12/12 22:02:04;;;;;;;;;;;;;;;2.26;77.76;100719.56;4984059;28;19965;-87
2021/12/12 22:04:32;;;;;;;;;;;;;;;2.30;77.74;100719.59;4983739;28;20008;-89
2021/12/12 22:06:59;;;;;;;;;;;;;;;2.30;77.83;100724.84;4983640;28;20442;-89
2021/12/12 22:09:25;;;;;;;;;;;;;;;2.34;77.72;100721.34;4984531;28;19918;-87
2021/12/12 22:12:02;;;;;;;;;;;;;;;2.35;77.58;100728.34;4982124;28;19918;-89
2021/12/12 22:14:33;;;;;;;;;;;;;;;2.35;77.69;100715.25;4984323;28;19980;-88
2021/12/12 22:17:02;;;;;;;;;;;;;;;2.37;77.74;100715.28;4985213;28;19922;-87
2021/12/12 22:19:32;;;;;;;;;;;;;;;2.39;77.84;100718.75;4982793;28;19918;-88
2021/12/12 22:22:00;;;;;;;;;;;;;;;2.42;77.87;100721.41;4982014;28;19918;-86
2021/12/12 22:24:29;;;;;;;;;;;;;;;2.44;77.84;100722.31;4984252;28;19925;-90
2021/12/12 22:26:56;;;;;;;;;;;;;;;2.47;78.07;100724.94;5007215;28;19965;-87
2021/12/12 22:29:21;;;;;;;;;;;;;;;2.49;77.96;100722.28;4983630;28;19917;-87
2021/12/12 22:31:53;;;;;;;;;;;;;;;2.50;78.00;100721.44;4982851;28;20366;-88
2021/12/12 22:34:22;;;;;;;;;;;;;;;2.53;78.00;100730.16;5007532;28;20465;-89
2021/12/12 22:36:51;;;;;;;;;;;;;;;2.57;77.91;100732.81;4983616;28;19925;-87
2021/12/12 22:39:19;;;;;;;;;;;;;;;2.57;78.11;100723.25;4983902;28;20364;-86
2021/12/12 22:41:47;;;;;;;;;;;;;;;2.62;78.23;100724.13;4981926;28;20365;-90
2021/12/12 22:44:16;;;;;;;;;;;;;;;2.61;78.07;100722.38;4984925;28;19926;-86
2021/12/12 22:46:42;;;;;;;;;;;;;;;2.61;78.14;100721.50;4982680;28;20285;-87
2021/12/12 22:49:12;;;;;;;;;;;;;;;2.67;78.18;100718.91;5007851;28;19918;-89
2021/12/12 22:51:41;;;;;;;;;;;;;;;2.68;78.23;100725.88;4982591;28;20325;-87
2021/12/12 22:54:12;;;;;;;;;;;;;;;2.69;78.45;100719.78;4984172;28;20009;-87
2021/12/12 22:56:42;;;;;;;;;;;;;;;2.72;78.44;100722.41;4981781;28;20480;-87
2021/12/12 22:59:13;;;;;;;;;;;;;;;2.74;78.38;100728.53;4991038;28;19929;-86
2021/12/12 23:01:50;;;;;;;;;;;;;;;2.76;78.49;100734.66;4984001;28;19919;-87
2021/12/12 23:04:23;;;;;;;;;;;;;;;2.81;78.52;100737.28;4990788;28;19945;-88
2021/12/12 23:06:55;;;;;;;;;;;;;;;2.82;78.63;100733.78;4984070;28;20400;-89
2021/12/12 23:09:41;;;;;;;;;;;;;;;2.85;78.65;100739.03;5006821;28;19922;-88